sensor_id;sensor_type;location;lat;lon;timestamp;pressure;altitude;pressure_sealevel;temperature;humidity
75775;BME280;64505;51.458;7.556;2023-07-24T00:01:56;98785.81;;;18.25;95.44
75775;BME280;64505;51.458;7.556;2023-07-24T00:03:57;98783.66;;;18.27;94.93
75775;BME280;64505;51.458;7.556;2023-07-24T00:06:01;98783.44;;;18.23;93.94
75775;BME280;64505;51.458;7.556;2023-07-24T00:08:03;98782.25;;;18.29;92.85
75775;BME280;64505;51.458;7.556;2023-07-24T00:10:05;98776.72;;;18.26;93.97
75775;BME280;64505;51.458;7.556;2023-07-24T00:12:06;98777.19;;;18.28;94.30
75775;BME280;64505;51.458;7.556;2023-07-24T00:14:08;98778.09;;;18.23;94.22
75775;BME280;64505;51.458;7.556;2023-07-24T00:16:09;98780.47;;;18.25;93.52
75775;BME280;64505;51.458;7.556;2023-07-24T00:18:11;98786.13;;;18.23;94.60
75775;BME280;64505;51.458;7.556;2023-07-24T00:20:13;98784.22;;;18.24;93.73
75775;BME280;64505;51.458;7.556;2023-07-24T00:22:14;98788.00;;;18.23;94.42
75775;BME280;64505;51.458;7.556;2023-07-24T00:24:16;98783.44;;;18.23;94.17
75775;BME280;64505;51.458;7.556;2023-07-24T00:26:17;98775.91;;;18.25;94.11
75775;BME280;64505;51.458;7.556;2023-07-24T00:28:19;98773.53;;;18.24;94.97
75775;BME280;64505;51.458;7.556;2023-07-24T00:30:20;98768.97;;;18.24;94.38
75775;BME280;64505;51.458;7.556;2023-07-24T00:32:21;98769.75;;;18.25;94.91
75775;BME280;64505;51.458;7.556;2023-07-24T00:34:23;98764.22;;;18.21;94.79
75775;BME280;64505;51.458;7.556;2023-07-24T00:36:27;98773.03;;;18.22;95.46
75775;BME280;64505;51.458;7.556;2023-07-24T00:38:29;98758.66;;;18.17;95.54
75775;BME280;64505;51.458;7.556;2023-07-24T00:40:30;98764.28;;;18.16;95.05
75775;BME280;64505;51.458;7.556;2023-07-24T00:42:32;98755.09;;;18.08;95.89
75775;BME280;64505;51.458;7.556;2023-07-24T00:44:33;98751.09;;;18.06;95.73
75775;BME280;64505;51.458;7.556;2023-07-24T00:46:35;98747.06;;;18.08;95.86
75775;BME280;64505;51.458;7.556;2023-07-24T00:48:38;98745.84;;;18.01;96.36
75775;BME280;64505;51.458;7.556;2023-07-24T00:50:42;98741.66;;;17.95;95.57
75775;BME280;64505;51.458;7.556;2023-07-24T00:52:43;98736.91;;;17.92;95.80
75775;BME280;64505;51.458;7.556;2023-07-24T00:54:45;98735.63;;;17.89;95.73
75775;BME280;64505;51.458;7.556;2023-07-24T00:56:47;98734.59;;;17.85;95.65
75775;BME280;64505;51.458;7.556;2023-07-24T00:58:49;98732.81;;;17.81;95.60
75775;BME280;64505;51.458;7.556;2023-07-24T01:00:51;98744.31;;;17.81;95.35
75775;BME280;64505;51.458;7.556;2023-07-24T01:02:53;98744.38;;;17.76;96.10
75775;BME280;64505;51.458;7.556;2023-07-24T01:04:55;98738.03;;;17.72;96.25
75775;BME280;64505;51.458;7.556;2023-07-24T01:06:57;98729.59;;;17.65;95.16
75775;BME280;64505;51.458;7.556;2023-07-24T01:08:58;98729.69;;;17.60;95.92
75775;BME280;64505;51.458;7.556;2023-07-24T01:11:05;98728.59;;;17.61;95.94
75775;BME280;64505;51.458;7.556;2023-07-24T01:13:15;98733.63;;;17.62;95.70
75775;BME280;64505;51.458;7.556;2023-07-24T01:15:27;98737.63;;;17.65;95.43
75775;BME280;64505;51.458;7.556;2023-07-24T01:17:31;98733.84;;;17.66;95.69
75775;BME280;64505;51.458;7.556;2023-07-24T01:19:41;98729.31;;;17.66;95.38
75775;BME280;64505;51.458;7.556;2023-07-24T01:24:29;98728.13;;;17.73;95.87
75775;BME280;64505;51.458;7.556;2023-07-24T01:26:32;98717.22;;;17.69;95.57
75775;BME280;64505;51.458;7.556;2023-07-24T01:28:33;98716.53;;;17.63;97.37
75775;BME280;64505;51.458;7.556;2023-07-24T01:30:35;98719.25;;;17.58;96.58
75775;BME280;64505;51.458;7.556;2023-07-24T01:32:37;98716.09;;;17.56;96.09
75775;BME280;64505;51.458;7.556;2023-07-24T01:34:39;98714.00;;;17.53;95.68
75775;BME280;64505;51.458;7.556;2023-07-24T01:36:40;98705.13;;;17.58;94.63
75775;BME280;64505;51.458;7.556;2023-07-24T01:38:42;98705.91;;;17.58;95.22
75775;BME280;64505;51.458;7.556;2023-07-24T01:40:44;98700.63;;;17.53;95.34
75775;BME280;64505;51.458;7.556;2023-07-24T01:42:46;98698.22;;;17.52;94.55
75775;BME280;64505;51.458;7.556;2023-07-24T01:44:52;98705.44;;;17.51;95.82
75775;BME280;64505;51.458;7.556;2023-07-24T01:46:53;98695.13;;;17.45;96.37
75775;BME280;64505;51.458;7.556;2023-07-24T01:48:55;98696.00;;;17.40;97.50
75775;BME280;64505;51.458;7.556;2023-07-24T01:50:57;98695.31;;;17.35;96.72
75775;BME280;64505;51.458;7.556;2023-07-24T01:52:58;98697.19;;;17.34;96.87
75775;BME280;64505;51.458;7.556;2023-07-24T01:55:00;98687.13;;;17.26;97.57
75775;BME280;64505;51.458;7.556;2023-07-24T01:57:02;98683.41;;;17.27;97.34
75775;BME280;64505;51.458;7.556;2023-07-24T01:59:03;98682.31;;;17.28;96.58
75775;BME280;64505;51.458;7.556;2023-07-24T02:01:05;98685.63;;;17.20;97.09
75775;BME280;64505;51.458;7.556;2023-07-24T02:03:06;98679.00;;;17.17;97.70
75775;BME280;64505;51.458;7.556;2023-07-24T02:05:08;98682.97;;;17.20;97.52
75775;BME280;64505;51.458;7.556;2023-07-24T02:07:10;98671.06;;;17.12;97.18
75775;BME280;64505;51.458;7.556;2023-07-24T02:09:11;98673.25;;;17.10;97.91
75775;BME280;64505;51.458;7.556;2023-07-24T02:11:13;98672.44;;;17.10;97.92
75775;BME280;64505;51.458;7.556;2023-07-24T02:13:14;98669.25;;;17.08;97.49
75775;BME280;64505;51.458;7.556;2023-07-24T02:15:16;98666.59;;;17.08;98.34
75775;BME280;64505;51.458;7.556;2023-07-24T02:17:18;98664.72;;;17.08;96.94
75775;BME280;64505;51.458;7.556;2023-07-24T02:19:19;98659.69;;;17.07;97.73
75775;BME280;64505;51.458;7.556;2023-07-24T02:21:21;98658.28;;;17.09;98.55
75775;BME280;64505;51.458;7.556;2023-07-24T02:23:22;98657.50;;;17.09;97.80
75775;BME280;64505;51.458;7.556;2023-07-24T02:25:24;98653.75;;;17.10;97.17
75775;BME280;64505;51.458;7.556;2023-07-24T02:27:31;98657.50;;;17.09;96.83
75775;BME280;64505;51.458;7.556;2023-07-24T02:29:35;98652.66;;;17.11;97.09
75775;BME280;64505;51.458;7.556;2023-07-24T02:31:37;98652.44;;;17.07;97.93
75775;BME280;64505;51.458;7.556;2023-07-24T02:33:38;98650.88;;;17.06;97.62
75775;BME280;64505;51.458;7.556;2023-07-24T02:35:41;98644.00;;;17.00;98.46
75775;BME280;64505;51.458;7.556;2023-07-24T02:37:42;98646.09;;;17.03;98.03
75775;BME280;64505;51.458;7.556;2023-07-24T02:39:46;98652.22;;;17.04;98.01
75775;BME280;64505;51.458;7.556;2023-07-24T02:41:48;98644.78;;;17.01;99.40
75775;BME280;64505;51.458;7.556;2023-07-24T02:43:50;98643.44;;;17.03;97.68
75775;BME280;64505;51.458;7.556;2023-07-24T02:45:51;98642.84;;;17.06;97.75
75775;BME280;64505;51.458;7.556;2023-07-24T02:47:53;98645.53;;;17.06;97.93
75775;BME280;64505;51.458;7.556;2023-07-24T02:49:54;98639.38;;;17.06;98.09
75775;BME280;64505;51.458;7.556;2023-07-24T02:51:56;98640.47;;;17.05;99.78
75775;BME280;64505;51.458;7.556;2023-07-24T02:53:57;98634.31;;;17.04;98.87
75775;BME280;64505;51.458;7.556;2023-07-24T02:56:01;98624.16;;;17.06;99.29
75775;BME280;64505;51.458;7.556;2023-07-24T02:58:02;98625.22;;;17.05;98.17
75775;BME280;64505;51.458;7.556;2023-07-24T03:00:04;98621.75;;;17.05;98.37
75775;BME280;64505;51.458;7.556;2023-07-24T03:02:06;98633.44;;;17.09;98.78
75775;BME280;64505;51.458;7.556;2023-07-24T03:04:08;98633.97;;;17.11;99.17
75775;BME280;64505;51.458;7.556;2023-07-24T03:06:09;98632.88;;;17.12;99.24
75775;BME280;64505;51.458;7.556;2023-07-24T03:08:11;98629.31;;;17.16;98.60
75775;BME280;64505;51.458;7.556;2023-07-24T03:10:12;98630.41;;;17.15;97.89
75775;BME280;64505;51.458;7.556;2023-07-24T03:12:13;98624.78;;;17.17;98.80
75775;BME280;64505;51.458;7.556;2023-07-24T03:14:15;98620.25;;;17.17;98.41
75775;BME280;64505;51.458;7.556;2023-07-24T03:16:16;98607.16;;;17.16;97.79
75775;BME280;64505;51.458;7.556;2023-07-24T03:18:20;98601.16;;;17.24;98.09
75775;BME280;64505;51.458;7.556;2023-07-24T03:20:22;98601.66;;;17.26;97.47
75775;BME280;64505;51.458;7.556;2023-07-24T03:22:23;98585.34;;;17.28;97.97
75775;BME280;64505;51.458;7.556;2023-07-24T03:24:25;98574.44;;;17.24;99.12
75775;BME280;64505;51.458;7.556;2023-07-24T03:26:26;98581.88;;;17.27;98.40
75775;BME280;64505;51.458;7.556;2023-07-24T03:28:28;98605.63;;;17.29;97.56
75775;BME280;64505;51.458;7.556;2023-07-24T03:30:30;98608.50;;;17.32;98.63
75775;BME280;64505;51.458;7.556;2023-07-24T03:32:32;98610.59;;;17.35;98.65
75775;BME280;64505;51.458;7.556;2023-07-24T03:34:33;98607.13;;;17.35;98.14
75775;BME280;64505;51.458;7.556;2023-07-24T03:36:34;98607.13;;;17.35;98.91
75775;BME280;64505;51.458;7.556;2023-07-24T03:38:37;98601.97;;;17.38;98.83
75775;BME280;64505;51.458;7.556;2023-07-24T03:40:38;98592.97;;;17.34;98.26
75775;BME280;64505;51.458;7.556;2023-07-24T03:42:39;98580.31;;;17.40;98.28
75775;BME280;64505;51.458;7.556;2023-07-24T03:44:41;98569.31;;;17.41;98.86
75775;BME280;64505;51.458;7.556;2023-07-24T03:46:42;98571.19;;;17.41;99.02
75775;BME280;64505;51.458;7.556;2023-07-24T03:48:44;98569.31;;;17.41;98.91
75775;BME280;64505;51.458;7.556;2023-07-24T03:50:45;98574.38;;;17.43;98.13
75775;BME280;64505;51.458;7.556;2023-07-24T03:52:47;98570.13;;;17.42;99.45
75775;BME280;64505;51.458;7.556;2023-07-24T03:54:48;98566.38;;;17.43;98.27
75775;BME280;64505;51.458;7.556;2023-07-24T03:56:50;98565.84;;;17.41;98.29
75775;BME280;64505;51.458;7.556;2023-07-24T03:58:52;98561.09;;;17.38;98.57
75775;BME280;64505;51.458;7.556;2023-07-24T04:00:53;98564.19;;;17.45;97.95
75775;BME280;64505;51.458;7.556;2023-07-24T04:02:55;98567.84;;;17.49;97.46
75775;BME280;64505;51.458;7.556;2023-07-24T04:04:57;98559.63;;;17.45;97.17
75775;BME280;64505;51.458;7.556;2023-07-24T04:06:58;98555.97;;;17.41;98.08
75775;BME280;64505;51.458;7.556;2023-07-24T04:09:00;98550.44;;;17.51;98.02
75775;BME280;64505;51.458;7.556;2023-07-24T04:11:01;98554.22;;;17.50;97.39
75775;BME280;64505;51.458;7.556;2023-07-24T04:13:03;98550.09;;;17.58;97.25
75775;BME280;64505;51.458;7.556;2023-07-24T04:15:04;98547.19;;;17.54;97.43
75775;BME280;64505;51.458;7.556;2023-07-24T04:17:06;98552.75;;;17.58;97.66
75775;BME280;64505;51.458;7.556;2023-07-24T04:19:08;98552.75;;;17.58;98.09
75775;BME280;64505;51.458;7.556;2023-07-24T04:21:10;98551.66;;;17.59;98.91
75775;BME280;64505;51.458;7.556;2023-07-24T04:23:11;98550.28;;;17.61;97.73
75775;BME280;64505;51.458;7.556;2023-07-24T04:25:13;98554.03;;;17.60;98.21
75775;BME280;64505;51.458;7.556;2023-07-24T04:27:14;98558.88;;;17.58;98.04
75775;BME280;64505;51.458;7.556;2023-07-24T04:29:16;98550.84;;;17.58;96.94
75775;BME280;64505;51.458;7.556;2023-07-24T04:31:17;98550.78;;;17.63;97.06
75775;BME280;64505;51.458;7.556;2023-07-24T04:33:19;98554.44;;;17.67;98.08
75775;BME280;64505;51.458;7.556;2023-07-24T04:35:20;98556.81;;;17.69;96.56
75775;BME280;64505;51.458;7.556;2023-07-24T04:37:22;98567.69;;;17.73;97.48
75775;BME280;64505;51.458;7.556;2023-07-24T04:39:23;98562.34;;;17.73;96.28
75775;BME280;64505;51.458;7.556;2023-07-24T04:41:24;98564.94;;;17.78;95.93
75775;BME280;64505;51.458;7.556;2023-07-24T04:43:26;98559.59;;;17.78;95.81
75775;BME280;64505;51.458;7.556;2023-07-24T04:45:27;98567.22;;;17.84;97.18
75775;BME280;64505;51.458;7.556;2023-07-24T04:47:29;98564.94;;;17.78;95.59
75775;BME280;64505;51.458;7.556;2023-07-24T04:49:31;98564.72;;;17.88;96.00
75775;BME280;64505;51.458;7.556;2023-07-24T04:51:33;98563.66;;;17.89;97.52
75775;BME280;64505;51.458;7.556;2023-07-24T04:53:37;98563.94;;;17.87;96.55
75775;BME280;64505;51.458;7.556;2023-07-24T04:55:38;98554.53;;;17.90;96.92
75775;BME280;64505;51.458;7.556;2023-07-24T04:57:40;98561.78;;;17.89;97.47
75775;BME280;64505;51.458;7.556;2023-07-24T04:59:41;98553.75;;;17.89;96.64
75775;BME280;64505;51.458;7.556;2023-07-24T05:01:44;98551.34;;;17.88;94.36
75775;BME280;64505;51.458;7.556;2023-07-24T05:03:46;98551.34;;;17.88;95.35
75775;BME280;64505;51.458;7.556;2023-07-24T05:05:48;98552.94;;;17.89;94.67
75775;BME280;64505;51.458;7.556;2023-07-24T05:07:50;98549.06;;;17.95;95.16
75775;BME280;64505;51.458;7.556;2023-07-24T05:09:52;98555.81;;;17.92;96.50
75775;BME280;64505;51.458;7.556;2023-07-24T05:11:53;98554.75;;;17.93;95.75
75775;BME280;64505;51.458;7.556;2023-07-24T05:13:55;98551.94;;;17.98;96.22
75775;BME280;64505;51.458;7.556;2023-07-24T05:15:56;98550.06;;;17.99;96.94
75775;BME280;64505;51.458;7.556;2023-07-24T05:17:58;98557.81;;;18.00;97.51
75775;BME280;64505;51.458;7.556;2023-07-24T05:19:59;98559.59;;;18.05;96.75
75775;BME280;64505;51.458;7.556;2023-07-24T05:22:01;98560.56;;;18.09;96.66
75775;BME280;64505;51.458;7.556;2023-07-24T05:24:02;98570.47;;;18.08;97.68
75775;BME280;64505;51.458;7.556;2023-07-24T05:26:04;98566.22;;;18.07;97.30
75775;BME280;64505;51.458;7.556;2023-07-24T05:28:06;98571.97;;;18.01;95.99
75775;BME280;64505;51.458;7.556;2023-07-24T05:30:07;98577.41;;;18.09;95.06
75775;BME280;64505;51.458;7.556;2023-07-24T05:32:09;98580.88;;;18.10;95.53
75775;BME280;64505;51.458;7.556;2023-07-24T05:34:10;98574.63;;;18.14;95.28
75775;BME280;64505;51.458;7.556;2023-07-24T05:36:12;98563.72;;;18.11;96.05
75775;BME280;64505;51.458;7.556;2023-07-24T05:38:13;98559.56;;;18.18;96.79
75775;BME280;64505;51.458;7.556;2023-07-24T05:40:14;98569.75;;;18.16;96.21
75775;BME280;64505;51.458;7.556;2023-07-24T05:42:16;98557.56;;;18.24;95.23
75775;BME280;64505;51.458;7.556;2023-07-24T05:44:17;98557.78;;;18.14;94.32
75775;BME280;64505;51.458;7.556;2023-07-24T05:46:19;98553.19;;;18.28;93.73
75775;BME280;64505;51.458;7.556;2023-07-24T05:48:20;98560.81;;;18.35;93.93
75775;BME280;64505;51.458;7.556;2023-07-24T05:50:22;98565.06;;;18.36;96.12
75775;BME280;64505;51.458;7.556;2023-07-24T05:52:24;98567.28;;;18.34;95.03
75775;BME280;64505;51.458;7.556;2023-07-24T05:54:25;98570.13;;;18.37;93.41
75775;BME280;64505;51.458;7.556;2023-07-24T05:56:26;98576.38;;;18.33;94.92
75775;BME280;64505;51.458;7.556;2023-07-24T05:58:28;98578.16;;;18.37;94.70
75775;BME280;64505;51.458;7.556;2023-07-24T06:00:30;98582.50;;;18.47;94.36
75775;BME280;64505;51.458;7.556;2023-07-24T06:02:32;98595.59;;;18.48;94.77
75775;BME280;64505;51.458;7.556;2023-07-24T06:04:33;98599.56;;;18.51;93.95
75775;BME280;64505;51.458;7.556;2023-07-24T06:06:35;98610.16;;;18.42;93.53
75775;BME280;64505;51.458;7.556;2023-07-24T06:08:42;98607.91;;;18.36;93.90
75775;BME280;64505;51.458;7.556;2023-07-24T06:10:46;98604.41;;;18.49;93.51
75775;BME280;64505;51.458;7.556;2023-07-24T06:12:47;98607.00;;;18.54;94.59
75775;BME280;64505;51.458;7.556;2023-07-24T06:14:49;98605.38;;;18.66;93.53
75775;BME280;64505;51.458;7.556;2023-07-24T06:16:50;98610.53;;;18.63;94.35
75775;BME280;64505;51.458;7.556;2023-07-24T06:18:52;98605.91;;;18.55;95.01
75775;BME280;64505;51.458;7.556;2023-07-24T06:20:54;98603.19;;;18.68;93.67
75775;BME280;64505;51.458;7.556;2023-07-24T06:22:55;98605.59;;;18.70;93.94
75775;BME280;64505;51.458;7.556;2023-07-24T06:24:56;98612.06;;;18.55;93.98
75775;BME280;64505;51.458;7.556;2023-07-24T06:26:58;98606.41;;;18.57;94.04
75775;BME280;64505;51.458;7.556;2023-07-24T06:28:59;98607.38;;;18.61;93.90
75775;BME280;64505;51.458;7.556;2023-07-24T06:31:01;98606.47;;;18.65;94.15
75775;BME280;64505;51.458;7.556;2023-07-24T06:33:02;98614.19;;;18.81;93.16
75775;BME280;64505;51.458;7.556;2023-07-24T06:35:04;98617.44;;;19.13;92.10
75775;BME280;64505;51.458;7.556;2023-07-24T06:37:06;98617.78;;;19.21;92.17
75775;BME280;64505;51.458;7.556;2023-07-24T06:39:22;98619.66;;;18.98;91.85
75775;BME280;64505;51.458;7.556;2023-07-24T06:41:24;98610.91;;;19.06;92.50
75775;BME280;64505;51.458;7.556;2023-07-24T06:43:26;98607.97;;;18.94;92.06
75775;BME280;64505;51.458;7.556;2023-07-24T06:45:28;98613.81;;;19.18;90.81
75775;BME280;64505;51.458;7.556;2023-07-24T06:47:30;98618.00;;;19.33;92.14
75775;BME280;64505;51.458;7.556;2023-07-24T06:49:31;98607.47;;;19.36;91.82
75775;BME280;64505;51.458;7.556;2023-07-24T06:51:33;98622.75;;;19.36;90.99
75775;BME280;64505;51.458;7.556;2023-07-24T06:53:34;98609.94;;;19.24;91.98
75775;BME280;64505;51.458;7.556;2023-07-24T06:55:36;98616.22;;;19.20;91.25
75775;BME280;64505;51.458;7.556;2023-07-24T06:57:37;98609.94;;;19.24;91.48
75775;BME280;64505;51.458;7.556;2023-07-24T06:59:39;98608.25;;;19.37;92.47
75775;BME280;64505;51.458;7.556;2023-07-24T07:01:41;98605.50;;;19.42;89.35
75775;BME280;64505;51.458;7.556;2023-07-24T07:03:42;98609.72;;;19.65;88.82
75775;BME280;64505;51.458;7.556;2023-07-24T07:05:44;98600.75;;;19.70;89.66
75775;BME280;64505;51.458;7.556;2023-07-24T07:07:45;98600.91;;;19.73;88.23
75775;BME280;64505;51.458;7.556;2023-07-24T07:09:47;98600.34;;;19.85;89.18
75775;BME280;64505;51.458;7.556;2023-07-24T07:11:48;98596.63;;;19.72;88.63
75775;BME280;64505;51.458;7.556;2023-07-24T07:13:50;98603.81;;;19.85;87.49
75775;BME280;64505;51.458;7.556;2023-07-24T07:15:51;98599.09;;;19.91;87.62
75775;BME280;64505;51.458;7.556;2023-07-24T07:17:53;98601.47;;;20.01;88.57
75775;BME280;64505;51.458;7.556;2023-07-24T07:19:54;98600.66;;;20.31;87.35
75775;BME280;64505;51.458;7.556;2023-07-24T07:21:57;98602.19;;;20.24;84.97
75775;BME280;64505;51.458;7.556;2023-07-24T07:23:59;98599.72;;;20.36;85.94
75775;BME280;64505;51.458;7.556;2023-07-24T07:26:00;98601.63;;;20.44;83.17
75775;BME280;64505;51.458;7.556;2023-07-24T07:28:02;98601.19;;;20.68;84.45
75775;BME280;64505;51.458;7.556;2023-07-24T07:30:03;98592.16;;;20.63;84.19
75775;BME280;64505;51.458;7.556;2023-07-24T07:32:06;98596.75;;;20.72;83.30
75775;BME280;64505;51.458;7.556;2023-07-24T07:34:07;98580.78;;;20.84;82.37
75775;BME280;64505;51.458;7.556;2023-07-24T07:36:09;98581.56;;;20.84;82.21
75775;BME280;64505;51.458;7.556;2023-07-24T07:38:10;98584.72;;;21.03;84.04
75775;BME280;64505;51.458;7.556;2023-07-24T07:40:12;98582.88;;;20.87;81.59
75775;BME280;64505;51.458;7.556;2023-07-24T07:42:13;98575.41;;;20.92;79.46
75775;BME280;64505;51.458;7.556;2023-07-24T07:44:19;98575.56;;;20.96;80.37
75775;BME280;64505;51.458;7.556;2023-07-24T07:46:20;98579.97;;;21.09;81.19
75775;BME280;64505;51.458;7.556;2023-07-24T07:48:22;98574.47;;;20.88;81.05
75775;BME280;64505;51.458;7.556;2023-07-24T07:50:23;98580.31;;;20.82;82.43
75775;BME280;64505;51.458;7.556;2023-07-24T07:52:25;98578.59;;;20.94;81.37
75775;BME280;64505;51.458;7.556;2023-07-24T07:54:26;98580.97;;;20.79;81.01
75775;BME280;64505;51.458;7.556;2023-07-24T07:56:28;98579.84;;;20.97;81.51
75775;BME280;64505;51.458;7.556;2023-07-24T07:58:32;98571.47;;;20.81;81.29
75775;BME280;64505;51.458;7.556;2023-07-24T08:00:34;98575.09;;;20.77;80.60
75775;BME280;64505;51.458;7.556;2023-07-24T08:02:35;98580.19;;;20.87;79.71
75775;BME280;64505;51.458;7.556;2023-07-24T08:04:40;98568.44;;;20.91;79.45
75775;BME280;64505;51.458;7.556;2023-07-24T08:06:42;98573.38;;;20.89;79.85
75775;BME280;64505;51.458;7.556;2023-07-24T08:08:43;98577.94;;;20.80;79.57
75775;BME280;64505;51.458;7.556;2023-07-24T08:10:45;98581.44;;;20.89;80.68
75775;BME280;64505;51.458;7.556;2023-07-24T08:12:46;98579.84;;;20.97;79.99
75775;BME280;64505;51.458;7.556;2023-07-24T08:14:48;98570.03;;;20.84;79.19
75775;BME280;64505;51.458;7.556;2023-07-24T08:16:50;98569.88;;;20.80;79.56
75775;BME280;64505;51.458;7.556;2023-07-24T08:18:51;98576.06;;;20.89;81.23
75775;BME280;64505;51.458;7.556;2023-07-24T08:20:53;98572.69;;;21.09;78.78
75775;BME280;64505;51.458;7.556;2023-07-24T08:22:54;98567.84;;;21.12;79.64
75775;BME280;64505;51.458;7.556;2023-07-24T08:24:56;98563.06;;;21.17;78.14
75775;BME280;64505;51.458;7.556;2023-07-24T08:26:57;98567.16;;;21.06;77.37
75775;BME280;64505;51.458;7.556;2023-07-24T08:28:59;98561.66;;;21.20;77.68
75775;BME280;64505;51.458;7.556;2023-07-24T08:31:00;98557.69;;;21.17;75.88
75775;BME280;64505;51.458;7.556;2023-07-24T08:33:08;98562.94;;;21.05;75.97
75775;BME280;64505;51.458;7.556;2023-07-24T08:35:09;98561.63;;;21.02;75.67
75775;BME280;64505;51.458;7.556;2023-07-24T08:37:13;98555.34;;;21.16;75.11
75775;BME280;64505;51.458;7.556;2023-07-24T08:39:15;98565.88;;;21.38;75.58
75775;BME280;64505;51.458;7.556;2023-07-24T08:41:16;98560.47;;;21.46;75.34
75775;BME280;64505;51.458;7.556;2023-07-24T08:43:18;98548.28;;;21.49;76.21
75775;BME280;64505;51.458;7.556;2023-07-24T08:45:23;98556.59;;;21.65;74.10
75775;BME280;64505;51.458;7.556;2023-07-24T08:47:25;98557.66;;;21.81;76.18
75775;BME280;64505;51.458;7.556;2023-07-24T08:49:28;98552.00;;;21.74;72.23
75775;BME280;64505;51.458;7.556;2023-07-24T08:51:31;98551.28;;;21.85;73.07
75775;BME280;64505;51.458;7.556;2023-07-24T08:53:34;98547.63;;;21.90;74.43
75775;BME280;64505;51.458;7.556;2023-07-24T08:55:37;98546.84;;;21.51;70.51
75775;BME280;64505;51.458;7.556;2023-07-24T08:57:40;98558.84;;;22.00;70.61
75775;BME280;64505;51.458;7.556;2023-07-24T08:59:41;98566.13;;;22.00;70.15
75775;BME280;64505;51.458;7.556;2023-07-24T09:01:43;98562.56;;;22.17;72.11
75775;BME280;64505;51.458;7.556;2023-07-24T09:03:45;98547.22;;;21.71;69.28
75775;BME280;64505;51.458;7.556;2023-07-24T09:05:48;98546.88;;;22.39;69.71
75775;BME280;64505;51.458;7.556;2023-07-24T09:07:49;98549.22;;;22.62;67.77
75775;BME280;64505;51.458;7.556;2023-07-24T09:09:51;98555.22;;;22.46;65.74
75775;BME280;64505;51.458;7.556;2023-07-24T09:11:54;98555.69;;;22.48;68.06
75775;BME280;64505;51.458;7.556;2023-07-24T09:13:55;98551.88;;;22.49;67.55
75775;BME280;64505;51.458;7.556;2023-07-24T09:15:57;98542.53;;;22.47;67.83
75775;BME280;64505;51.458;7.556;2023-07-24T09:18:00;98557.53;;;22.56;68.13
75775;BME280;64505;51.458;7.556;2023-07-24T09:20:02;98566.41;;;22.07;66.39
75775;BME280;64505;51.458;7.556;2023-07-24T09:24:14;98558.31;;;22.57;67.40
75775;BME280;64505;51.458;7.556;2023-07-24T09:26:16;98543.19;;;22.44;65.86
75775;BME280;64505;51.458;7.556;2023-07-24T09:28:18;98552.25;;;22.39;66.33
75775;BME280;64505;51.458;7.556;2023-07-24T09:30:19;98547.72;;;22.31;67.46
75775;BME280;64505;51.458;7.556;2023-07-24T09:32:26;98546.31;;;22.04;66.57
75775;BME280;64505;51.458;7.556;2023-07-24T09:34:28;98555.44;;;22.12;67.53
75775;BME280;64505;51.458;7.556;2023-07-24T09:36:39;98556.16;;;22.00;68.18
75775;BME280;64505;51.458;7.556;2023-07-24T09:38:41;98550.47;;;21.93;69.10
75775;BME280;64505;51.458;7.556;2023-07-24T09:40:45;98555.22;;;21.96;68.04
75775;BME280;64505;51.458;7.556;2023-07-24T09:42:48;98548.41;;;21.99;68.06
75775;BME280;64505;51.458;7.556;2023-07-24T09:45:09;98544.94;;;21.98;69.60
75775;BME280;64505;51.458;7.556;2023-07-24T09:47:11;98549.69;;;22.22;70.81
75775;BME280;64505;51.458;7.556;2023-07-24T09:49:33;98548.59;;;21.94;67.33
75775;BME280;64505;51.458;7.556;2023-07-24T09:51:35;98548.97;;;21.75;69.49
75775;BME280;64505;51.458;7.556;2023-07-24T09:53:43;98556.88;;;21.80;70.08
75775;BME280;64505;51.458;7.556;2023-07-24T09:56:01;98550.28;;;21.60;69.82
75775;BME280;64505;51.458;7.556;2023-07-24T09:58:04;98546.63;;;21.65;70.30
75775;BME280;64505;51.458;7.556;2023-07-24T10:00:06;98543.09;;;21.44;71.07
75775;BME280;64505;51.458;7.556;2023-07-24T10:02:10;98547.75;;;21.64;70.12
75775;BME280;64505;51.458;7.556;2023-07-24T10:04:13;98537.03;;;21.93;69.78
75775;BME280;64505;51.458;7.556;2023-07-24T10:06:16;98543.16;;;22.02;69.33
75775;BME280;64505;51.458;7.556;2023-07-24T10:08:18;98535.13;;;21.85;68.06
75775;BME280;64505;51.458;7.556;2023-07-24T10:10:20;98538.75;;;21.89;69.96
75775;BME280;64505;51.458;7.556;2023-07-24T10:12:22;98534.50;;;21.88;70.01
75775;BME280;64505;51.458;7.556;2023-07-24T10:14:25;98528.78;;;21.90;69.54
75775;BME280;64505;51.458;7.556;2023-07-24T10:16:27;98525.09;;;21.74;70.02
75775;BME280;64505;51.458;7.556;2023-07-24T10:18:29;98518.16;;;22.02;70.95
75775;BME280;64505;51.458;7.556;2023-07-24T10:20:38;98526.66;;;22.04;70.71
75775;BME280;64505;51.458;7.556;2023-07-24T10:22:42;98528.13;;;22.22;70.57
75775;BME280;64505;51.458;7.556;2023-07-24T10:24:45;98523.16;;;22.33;69.48
75775;BME280;64505;51.458;7.556;2023-07-24T10:26:47;98515.41;;;22.31;71.10
75775;BME280;64505;51.458;7.556;2023-07-24T10:28:48;98510.59;;;22.37;70.85
75775;BME280;64505;51.458;7.556;2023-07-24T10:30:55;98507.00;;;22.53;71.74
75775;BME280;64505;51.458;7.556;2023-07-24T10:33:09;98514.63;;;22.31;70.36
75775;BME280;64505;51.458;7.556;2023-07-24T10:35:11;98526.66;;;22.04;70.06
75775;BME280;64505;51.458;7.556;2023-07-24T10:37:13;98529.06;;;22.05;69.91
75775;BME280;64505;51.458;7.556;2023-07-24T10:39:15;98519.34;;;21.75;69.50
75775;BME280;64505;51.458;7.556;2023-07-24T10:41:17;98517.03;;;21.65;69.53
75775;BME280;64505;51.458;7.556;2023-07-24T10:43:19;98527.50;;;21.96;69.21
75775;BME280;64505;51.458;7.556;2023-07-24T10:45:22;98522.75;;;22.22;68.68
75775;BME280;64505;51.458;7.556;2023-07-24T10:47:23;98522.50;;;22.56;67.80
75775;BME280;64505;51.458;7.556;2023-07-24T10:49:25;98517.84;;;22.45;67.89
75775;BME280;64505;51.458;7.556;2023-07-24T10:51:26;98519.47;;;22.37;68.02
75775;BME280;64505;51.458;7.556;2023-07-24T10:53:27;98520.47;;;22.53;66.85